createdAt,value
2018-12-07T00:02:56.777Z,103.68
2018-12-07T00:06:02.024Z,103.55
2018-12-07T00:09:06.889Z,104.04
2018-12-07T00:12:10.519Z,104.24
2018-12-07T00:15:14.065Z,104.23
2018-12-07T00:18:17.611Z,104.52
2018-12-07T00:21:21.215Z,104.74
2018-12-07T00:24:24.813Z,105.05
2018-12-07T00:27:28.275Z,105.60
2018-12-07T00:30:31.771Z,105.49
2018-12-07T00:33:35.250Z,105.38
2018-12-07T00:36:45.209Z,105.75
2018-12-07T00:39:48.766Z,106.03
2018-12-07T00:42:52.212Z,105.84
2018-12-07T00:45:55.816Z,106.09
2018-12-07T00:48:59.288Z,106.55
2018-12-07T00:52:02.820Z,106.44
2018-12-07T00:55:12.881Z,106.35
2018-12-07T00:58:16.493Z,106.49
2018-12-07T01:01:20.118Z,106.53
2018-12-07T01:04:23.752Z,106.79
2018-12-07T01:07:27.302Z,106.69
2018-12-07T01:10:31.146Z,106.71
2018-12-07T01:13:34.772Z,106.59
2018-12-07T01:16:38.290Z,106.45
2018-12-07T01:19:42.003Z,106.55
2018-12-07T01:22:45.492Z,106.47
2018-12-07T01:25:49.025Z,106.63
2018-12-07T01:28:52.501Z,106.61
2018-12-07T01:31:56.024Z,106.36
2018-12-07T01:34:59.701Z,106.40
2018-12-07T01:38:03.208Z,106.44
2018-12-07T01:41:06.787Z,106.15
2018-12-07T01:44:10.315Z,106.26
2018-12-07T01:47:13.787Z,106.35
2018-12-07T01:50:17.288Z,106.11
2018-12-07T01:53:20.763Z,106.22
2018-12-07T01:56:24.402Z,106.32
2018-12-07T01:59:27.850Z,106.48
2018-12-07T02:02:31.467Z,106.51
2018-12-07T02:05:34.969Z,106.34
2018-12-07T02:08:38.465Z,106.35
2018-12-07T02:11:41.940Z,106.29
2018-12-07T02:14:45.449Z,106.30
2018-12-07T02:17:48.959Z,106.48
2018-12-07T02:20:52.432Z,106.73
2018-12-07T02:23:55.949Z,106.73
2018-12-07T02:27:00.829Z,106.74
2018-12-07T02:30:06.024Z,106.93
2018-12-07T02:33:09.442Z,107.14
2018-12-07T02:36:12.982Z,107.19
2018-12-07T02:39:16.527Z,107.45
2018-12-07T02:42:19.992Z,107.32
2018-12-07T02:45:23.491Z,107.23
2018-12-07T02:48:27.008Z,107.42
2018-12-07T02:51:30.739Z,107.48
2018-12-07T02:54:34.346Z,107.59
2018-12-07T02:57:37.806Z,107.65
2018-12-07T03:00:41.276Z,107.65
2018-12-07T03:03:44.842Z,107.65
2018-12-07T03:06:48.359Z,107.63
2018-12-07T03:09:51.864Z,107.64
2018-12-07T03:12:55.405Z,107.66
2018-12-07T03:15:58.926Z,107.67
2018-12-07T03:19:02.590Z,107.64
2018-12-07T03:22:06.071Z,107.61
2018-12-07T03:25:09.591Z,107.45
2018-12-07T03:28:13.205Z,107.37
2018-12-07T03:31:16.709Z,107.33
2018-12-07T03:34:20.187Z,107.27
2018-12-07T03:37:23.711Z,107.40
2018-12-07T03:40:27.209Z,107.51
2018-12-07T03:43:31.807Z,107.61
2018-12-07T03:46:35.384Z,107.66
2018-12-07T03:49:38.890Z,107.58
2018-12-07T03:52:42.371Z,107.52
2018-12-07T03:55:45.916Z,107.51
2018-12-07T03:58:49.442Z,107.46
2018-12-07T04:01:52.949Z,107.26
2018-12-07T04:04:56.489Z,107.22
2018-12-07T04:07:59.926Z,107.26
2018-12-07T04:11:03.462Z,107.23
2018-12-07T04:14:06.940Z,107.08
2018-12-07T04:17:10.491Z,107.01
2018-12-07T04:20:14.015Z,107.04
2018-12-07T04:23:17.571Z,107.02
2018-12-07T04:26:21.096Z,106.97
2018-12-07T04:29:24.578Z,107.00
2018-12-07T04:32:28.002Z,106.93
2018-12-07T04:35:31.993Z,106.97
2018-12-07T04:38:35.586Z,106.80
2018-12-07T04:41:39.121Z,106.67
2018-12-07T04:44:42.572Z,106.88
2018-12-07T04:47:46.196Z,106.75
2018-12-07T04:50:49.783Z,106.77
2018-12-07T04:53:53.291Z,106.70
2018-12-07T04:56:56.847Z,106.80
2018-12-07T05:00:00.386Z,106.95
2018-12-07T05:03:04.001Z,107.07
2018-12-07T05:06:07.607Z,107.21
2018-12-07T05:09:11.193Z,107.22
2018-12-07T05:12:14.648Z,107.19
2018-12-07T05:15:18.248Z,106.93
2018-12-07T05:18:21.758Z,106.89
2018-12-07T05:21:25.307Z,106.71
2018-12-07T05:24:28.742Z,106.64
2018-12-07T05:27:32.300Z,106.79
2018-12-07T05:30:35.741Z,106.91
2018-12-07T05:33:39.261Z,106.96
2018-12-07T05:36:42.766Z,107.07
2018-12-07T05:39:46.206Z,107.06
2018-12-07T05:42:49.747Z,107.18
2018-12-07T05:45:53.250Z,107.19
2018-12-07T05:48:56.872Z,107.19
2018-12-07T05:52:00.566Z,107.18
2018-12-07T05:55:04.311Z,107.23
2018-12-07T05:58:07.814Z,107.01
2018-12-07T06:01:11.346Z,106.90
2018-12-07T06:04:14.853Z,106.96
2018-12-07T06:07:18.341Z,106.83
2018-12-07T06:10:21.980Z,106.87
2018-12-07T06:13:25.461Z,107.03
2018-12-07T06:16:29.106Z,107.16
2018-12-07T06:19:32.671Z,107.02
2018-12-07T06:22:36.193Z,106.92
2018-12-07T06:25:39.735Z,106.87
2018-12-07T06:28:43.253Z,106.87
2018-12-07T06:31:46.790Z,106.93
2018-12-07T06:34:50.280Z,107.06
2018-12-07T06:37:53.861Z,107.02
2018-12-07T06:40:58.229Z,106.89
2018-12-07T06:51:02.855Z,106.93
2018-12-07T06:54:06.491Z,107.02
2018-12-07T06:57:09.972Z,107.12
2018-12-07T07:00:13.644Z,107.06
2018-12-07T07:03:17.257Z,107.06
2018-12-07T07:06:20.785Z,107.14
2018-12-07T07:09:24.339Z,107.22
2018-12-07T07:12:29.209Z,107.27
2018-12-07T07:15:32.859Z,107.20
2018-12-07T07:18:36.311Z,107.25
2018-12-07T07:21:39.825Z,106.98
2018-12-07T07:24:43.301Z,106.92
2018-12-07T07:27:46.742Z,106.83
2018-12-07T07:30:50.415Z,106.90
2018-12-07T07:33:54.124Z,106.94
2018-12-07T07:36:57.649Z,106.86
2018-12-07T07:40:01.186Z,106.96
2018-12-07T07:43:04.658Z,107.33
2018-12-07T07:46:08.140Z,107.42
2018-12-07T07:49:11.659Z,107.50
2018-12-07T07:52:15.215Z,107.36
2018-12-07T07:55:18.712Z,107.38
2018-12-07T07:58:22.270Z,107.40
2018-12-07T08:01:25.881Z,107.36
2018-12-07T08:04:29.362Z,107.32
2018-12-07T08:07:32.926Z,107.17
2018-12-07T08:10:36.452Z,106.93
2018-12-07T08:13:39.904Z,107.08
2018-12-07T08:16:43.365Z,107.04
2018-12-07T08:19:46.917Z,106.91
2018-12-07T08:22:50.431Z,106.95
2018-12-07T08:25:54.110Z,106.92
2018-12-07T08:28:57.561Z,106.83
2018-12-07T08:32:01.025Z,106.80
2018-12-07T08:35:04.954Z,106.59
2018-12-07T08:38:08.485Z,106.62
2018-12-07T08:41:11.914Z,106.55
2018-12-07T08:44:15.485Z,106.57
2018-12-07T08:47:19.120Z,106.34
2018-12-07T08:50:22.584Z,105.90
2018-12-07T08:53:26.249Z,105.45
2018-12-07T08:56:30.477Z,105.67
2018-12-07T08:59:34.097Z,105.92
2018-12-07T09:02:37.741Z,105.88
2018-12-07T09:05:41.283Z,105.84
2018-12-07T09:08:44.802Z,105.84
2018-12-07T09:11:48.346Z,105.96
2018-12-07T09:14:51.794Z,105.78
2018-12-07T09:17:55.281Z,105.81
2018-12-07T09:20:58.830Z,105.86
2018-12-07T09:24:03.690Z,105.84
2018-12-07T09:27:07.220Z,105.77
2018-12-07T09:30:10.845Z,105.64
2018-12-07T09:33:14.356Z,105.67
2018-12-07T09:36:17.829Z,105.72
2018-12-07T09:39:21.436Z,105.71
2018-12-07T09:42:25.058Z,105.74
2018-12-07T09:45:28.539Z,105.60
2018-12-07T09:48:32.100Z,105.71
2018-12-07T09:51:35.634Z,105.37
2018-12-07T09:54:39.259Z,105.49
2018-12-07T09:57:42.745Z,105.42
2018-12-07T10:00:46.224Z,105.27
2018-12-07T10:03:49.700Z,104.76
2018-12-07T10:06:53.187Z,104.95
2018-12-07T10:09:56.658Z,104.78
2018-12-07T10:13:07.591Z,104.85
2018-12-07T10:16:05.791Z,105.05
2018-12-07T10:19:09.280Z,105.25
2018-12-07T10:22:12.789Z,105.39
2018-12-07T10:25:16.395Z,105.65
2018-12-07T10:28:20.074Z,105.63
2018-12-07T10:31:23.585Z,105.50
2018-12-07T10:34:27.075Z,105.21
2018-12-07T10:37:30.560Z,105.77
2018-12-07T10:40:34.162Z,105.78
2018-12-07T10:43:37.847Z,105.68
2018-12-07T10:46:41.342Z,105.33
2018-12-07T10:49:44.989Z,105.55
2018-12-07T10:52:48.470Z,105.43
2018-12-07T10:55:52.153Z,105.34
2018-12-07T10:58:55.601Z,105.16
2018-12-07T11:02:04.410Z,105.52
2018-12-07T11:05:13.061Z,105.05
2018-12-07T11:08:21.895Z,105.03
2018-12-07T11:11:30.525Z,104.74
2018-12-07T11:14:39.316Z,105.06
2018-12-07T11:17:48.040Z,105.70
2018-12-07T11:23:03.962Z,105.29
2018-12-07T11:26:12.888Z,106.06
2018-12-07T11:29:20.545Z,106.01
2018-12-07T11:32:31.187Z,105.79
2018-12-07T11:35:37.846Z,105.67
2018-12-07T11:38:41.377Z,105.36
2018-12-07T11:41:45.658Z,105.44
2018-12-07T11:44:49.140Z,105.50
2018-12-07T11:47:52.797Z,105.60
2018-12-07T11:50:56.355Z,105.73
2018-12-07T11:53:59.947Z,105.48
2018-12-07T11:57:04.346Z,105.46
2018-12-07T12:00:08.605Z,105.60
2018-12-07T12:03:12.089Z,105.23
2018-12-07T12:06:15.602Z,105.28
2018-12-07T12:09:19.078Z,105.49
2018-12-07T12:12:22.650Z,105.64
2018-12-07T12:15:26.085Z,105.64
2018-12-07T12:18:29.697Z,105.42
2018-12-07T12:21:33.430Z,105.71
2018-12-07T12:24:36.911Z,106.05
2018-12-07T12:27:40.427Z,105.97
2018-12-07T12:30:44.057Z,105.87
2018-12-07T12:33:47.576Z,105.94
2018-12-07T12:36:51.153Z,105.87
2018-12-07T12:39:54.671Z,105.74
2018-12-07T12:42:58.293Z,105.80
2018-12-07T12:46:01.962Z,105.13
2018-12-07T12:49:05.496Z,104.82
2018-12-07T12:52:08.962Z,104.34
2018-12-07T12:55:12.529Z,104.22
2018-12-07T12:58:16.051Z,103.50
2018-12-07T13:01:20.236Z,103.72
2018-12-07T13:04:23.710Z,103.28
2018-12-07T13:07:27.330Z,102.78
2018-12-07T13:10:30.798Z,102.42
2018-12-07T13:13:34.393Z,102.03
2018-12-07T13:16:37.995Z,101.17
2018-12-07T13:19:41.556Z,101.34
2018-12-07T13:22:45.237Z,100.81
2018-12-07T13:25:48.841Z,100.50
2018-12-07T13:28:52.358Z,100.24
2018-12-07T13:31:56.081Z,100.04
2018-12-07T13:34:59.592Z,99.80
2018-12-07T13:44:58.861Z,98.25
2018-12-07T13:48:02.700Z,97.08
2018-12-07T13:51:08.202Z,97.44
2018-12-07T13:54:12.152Z,97.60
2018-12-07T13:57:15.705Z,97.49
2018-12-07T14:00:19.241Z,97.42
2018-12-07T14:03:22.794Z,97.36
2018-12-07T14:06:26.457Z,96.66
2018-12-07T14:09:30.220Z,96.70
2018-12-07T14:12:33.869Z,96.79
2018-12-07T14:15:37.486Z,96.47
2018-12-07T14:18:41.193Z,96.46
2018-12-07T14:21:44.771Z,96.22
2018-12-07T14:24:48.310Z,95.22
2018-12-07T14:27:52.039Z,94.51
2018-12-07T14:30:55.781Z,95.37
2018-12-07T14:33:59.418Z,95.40
2018-12-07T14:43:58.969Z,95.58
2018-12-07T14:47:02.485Z,94.91
2018-12-07T14:50:07.018Z,94.73
2018-12-07T14:53:10.775Z,94.94
2018-12-07T14:56:14.589Z,94.31
2018-12-07T14:59:18.308Z,95.11
2018-12-07T15:02:22.025Z,94.56
2018-12-07T15:05:25.525Z,93.61
2018-12-07T15:08:29.116Z,94.00
2018-12-07T15:11:32.736Z,94.28
2018-12-07T15:14:36.302Z,93.82
2018-12-07T15:17:39.925Z,93.89
2018-12-07T15:20:43.471Z,93.34
2018-12-07T15:23:47.251Z,94.51
2018-12-07T15:26:51.099Z,96.03
2018-12-07T15:29:55.202Z,97.10
2018-12-07T15:32:58.782Z,97.95
2018-12-07T15:36:02.297Z,99.30
2018-12-07T15:39:08.604Z,99.98
2018-12-07T15:42:12.407Z,101.26
2018-12-07T15:45:15.995Z,101.09
2018-12-07T15:48:19.672Z,101.97
2018-12-07T15:51:23.521Z,102.52
2018-12-07T15:54:27.143Z,102.06
2018-12-07T15:57:30.910Z,102.45
2018-12-07T16:00:34.489Z,103.58
2018-12-07T16:03:38.164Z,103.88
2018-12-07T16:06:42.083Z,104.07
2018-12-07T16:09:45.830Z,104.16
2018-12-07T16:12:49.791Z,103.29
2018-12-07T16:15:53.395Z,103.63
2018-12-07T16:18:56.956Z,103.91
2018-12-07T16:22:00.575Z,103.68
2018-12-07T16:25:04.544Z,102.19
2018-12-07T16:28:08.303Z,102.86
2018-12-07T16:31:12.080Z,102.85
2018-12-07T16:34:15.940Z,102.69
2018-12-07T16:37:19.624Z,102.32
2018-12-07T16:40:23.423Z,101.68
2018-12-07T16:43:27.215Z,102.05
2018-12-07T16:46:31.337Z,101.73
2018-12-07T16:49:35.135Z,99.02
2018-12-07T16:52:39.529Z,98.73
2018-12-07T16:55:43.254Z,97.44
2018-12-07T16:58:47.112Z,96.14
2018-12-07T17:01:50.567Z,97.44
2018-12-07T17:04:54.150Z,98.12
2018-12-07T17:07:58.010Z,99.40
2018-12-07T17:11:01.595Z,99.61
2018-12-07T17:14:05.952Z,99.24
2018-12-07T17:17:09.692Z,100.58
2018-12-07T17:20:13.298Z,101.40
2018-12-07T17:23:17.122Z,101.72
2018-12-07T17:26:20.793Z,101.23
2018-12-07T17:29:24.637Z,100.96
2018-12-07T17:32:28.444Z,101.60
2018-12-07T17:35:32.324Z,101.88
2018-12-07T17:38:35.917Z,102.17
2018-12-07T17:41:39.697Z,102.68
2018-12-07T17:44:43.603Z,102.73
2018-12-07T17:47:47.227Z,103.13
2018-12-07T17:50:51.076Z,103.48
2018-12-07T17:53:54.580Z,103.19
2018-12-07T17:56:58.366Z,102.94
2018-12-07T18:00:02.122Z,103.41
2018-12-07T18:03:05.882Z,103.17
2018-12-07T18:06:09.342Z,104.10
2018-12-07T18:09:12.948Z,104.28
2018-12-07T18:12:16.661Z,103.89
2018-12-07T18:15:20.284Z,104.10
2018-12-07T18:18:23.930Z,103.23
2018-12-07T18:21:27.487Z,103.36
2018-12-07T18:24:31.071Z,102.90
2018-12-07T18:27:34.698Z,103.32
2018-12-07T18:30:38.296Z,103.29
2018-12-07T18:33:41.952Z,102.95
2018-12-07T18:36:45.603Z,102.62
2018-12-07T18:39:49.381Z,103.10
2018-12-07T18:42:53.222Z,103.40
2018-12-07T18:45:56.844Z,103.40
2018-12-07T18:49:00.525Z,103.44
2018-12-07T18:59:17.168Z,103.42
2018-12-07T19:02:20.861Z,103.25
2018-12-07T19:05:24.837Z,103.02
2018-12-07T19:08:28.457Z,102.23
2018-12-07T19:11:32.017Z,101.91
2018-12-07T19:14:35.902Z,101.47
2018-12-07T19:17:39.698Z,101.48
2018-12-07T19:20:43.407Z,101.84
2018-12-07T19:23:47.093Z,102.02
2018-12-07T19:26:50.995Z,104.49
2018-12-07T19:29:54.637Z,102.85
2018-12-07T19:32:58.147Z,103.19
2018-12-07T19:36:01.892Z,100.75
2018-12-07T19:39:09.135Z,102.42
2018-12-07T19:42:12.808Z,102.59
2018-12-07T19:45:17.456Z,103.30
2018-12-07T19:48:21.237Z,103.18
2018-12-07T19:51:24.894Z,102.95
2018-12-07T19:54:29.099Z,103.09
2018-12-07T19:57:32.918Z,103.59
2018-12-07T20:00:36.743Z,104.03
2018-12-07T20:03:40.363Z,104.75
2018-12-07T20:06:44.385Z,105.19
2018-12-07T20:09:48.375Z,104.76
2018-12-07T20:12:52.175Z,104.16
2018-12-07T20:15:55.970Z,104.40
2018-12-07T20:19:00.684Z,104.29
2018-12-07T20:29:05.947Z,103.87
2018-12-07T20:32:09.625Z,103.23
2018-12-07T20:35:13.320Z,102.79
2018-12-07T20:38:16.782Z,102.91
2018-12-07T20:41:20.457Z,101.86
2018-12-07T20:44:24.566Z,102.52
2018-12-07T20:47:28.491Z,102.91
2018-12-07T20:50:32.046Z,102.27
2018-12-07T20:53:35.870Z,103.23
2018-12-07T20:56:39.587Z,103.95
2018-12-07T20:59:43.250Z,103.59
2018-12-07T21:02:47.349Z,102.75
2018-12-07T21:06:16.517Z,103.03
2018-12-07T21:09:39.487Z,103.03
2018-12-07T21:12:58.694Z,102.99
2018-12-07T21:17:35.669Z,103.13
2018-12-07T21:20:39.517Z,102.94
2018-12-07T21:23:43.262Z,102.30
2018-12-07T21:26:47.011Z,101.61
2018-12-07T21:30:24.694Z,102.53
2018-12-07T21:34:39.947Z,102.55
2018-12-07T21:37:43.999Z,101.78
2018-12-07T21:40:47.801Z,101.14
2018-12-07T21:43:51.491Z,100.91
2018-12-07T21:46:55.522Z,101.41
2018-12-07T21:50:08.488Z,101.18
2018-12-07T21:53:12.069Z,101.13
2018-12-07T21:56:15.853Z,100.61
2018-12-07T21:59:19.349Z,101.37
2018-12-07T22:02:23.083Z,101.23
2018-12-07T22:05:26.693Z,100.72
2018-12-07T22:08:30.307Z,100.33
2018-12-07T22:11:33.952Z,100.61
2018-12-07T22:14:37.481Z,100.43
2018-12-07T22:17:41.087Z,100.26
2018-12-07T22:20:44.854Z,99.50
2018-12-07T22:23:48.518Z,99.28
2018-12-07T22:26:52.168Z,98.58
2018-12-07T22:29:56.028Z,99.42
2018-12-07T22:32:59.692Z,99.80
2018-12-07T22:36:03.551Z,100.03
2018-12-07T22:39:08.912Z,99.79
2018-12-07T22:42:12.666Z,99.20
2018-12-07T22:45:16.278Z,98.85
2018-12-07T22:48:19.947Z,98.66
2018-12-07T22:51:24.453Z,97.53
2018-12-07T22:54:27.983Z,97.66
2018-12-07T22:57:31.492Z,97.43
2018-12-07T23:00:35.777Z,97.94
2018-12-07T23:03:39.320Z,97.95
2018-12-07T23:06:42.835Z,98.04
2018-12-07T23:09:46.321Z,98.63
2018-12-07T23:12:49.991Z,97.95
2018-12-07T23:15:53.465Z,98.89
2018-12-07T23:18:57.088Z,98.62
2018-12-07T23:22:00.558Z,98.54
2018-12-07T23:25:04.311Z,98.61
2018-12-07T23:28:07.823Z,98.11
2018-12-07T23:31:11.248Z,97.75
2018-12-07T23:34:14.747Z,98.31
2018-12-07T23:37:18.167Z,98.08
2018-12-07T23:40:21.680Z,98.47
2018-12-07T23:43:25.265Z,98.65
2018-12-07T23:46:28.936Z,99.21
2018-12-07T23:49:32.459Z,99.04
2018-12-07T23:52:36.026Z,99.88
2018-12-07T23:55:39.551Z,100.12
2018-12-07T23:58:43.001Z,99.89
